Aberdeen Regional Airport Aberdeen US
ICAO: KABR
IATA: ABR
Category: Medium
Scheduled Services: Yes

Elevation: 1302 ft
TransAlt. 18000 ft.

Airport Communications:
ASOS:125.875
MINNEAPOLIS CNTR:120.6
CTAF:122.7
HURON RDO:122.4
UNICOM:122.95

KABR Zoom In..

If you have problems with the map follow the link
https://www.worldairports.se/pages/airport.php?
ICAO=KABR

Runways:

(A) RW 13 length 6901 ft width 100 ft
---- / hdg 128

(B) RW 17 length 5500 ft width 100 ft
---- / hdg 173

(C) RW 31 length 6901 ft width 100 ft
ILS 109.90 / hdg 308

(D) RW 35 length 5500 ft width 100 ft
---- / hdg 353

Location; KABR
Day. 08 / Time. 17.53 Zulu
* Altimeter: 29.84
* Temperature: -06° c. -21.2°f.
* Wind from: 040° Speed 11 kn.
Dewpoint: -08° c.
Visibility: 10 Statute Miles.
Clouds: Overcast 800 ft.

KABR 081753Z AUTO 04011KT 10SM OVC008 M06/M08 A2984 RMK AO2 SLP124 I6002 T10611083 11017 21061 50010 $


Wind From 040°
Speed 11 kn.

 
 
jpsmedia worldairports.se 2019   terms of use